Admiral — WCY6529 — position and weather

sailwx.info

Track history (hours):
 
Tides and Currents Weather Stations Pressure Air Temp Water Temp Dewpoint Dewpoint Depression Visibility Wind Speed Wind Dir Waves Ship Positions

Admiral

Owner: Crowley Marine Services, SEATTLE, WA. More information available from US FCC via Universal Licensing System and Coast Guard Vessel Documentation Center.

Last reported at 2016-Feb-07 16:26 UTC. Time now 2016-Feb-07 17:11 UTC.
Position N 33°44' W 118°17'.

; draft 5.3 m.

Type: Tug. MMSI: 366755020.

Date/timePositionNaut miles runAvg speedWind from/ knotsBaromVisibWave heightAir tempDewpointWater temp
2016-Feb-07 16:26N 33°44' W 118°17'3 3.6
2016-Feb-07 15:32N 33°46' W 118°13'1 1.0
2016-Feb-07 14:33N 33°46' W 118°14'2 2.0
2016-Feb-07 13:33N 33°45' W 118°12'3 3.2
2016-Feb-07 12:33N 33°45' W 118°16'1 0.2
2016-Feb-07 07:33N 33°44' W 118°17'3 0.8
2016-Feb-07 03:33N 33°45' W 118°13'1 0.7
2016-Feb-07 02:33N 33°45' W 118°13'0 0.3
2016-Feb-07 01:34N 33°45' W 118°13'1 0.7
2016-Feb-07 00:33N 33°44' W 118°13'3 0.9
2016-Feb-06 21:11N 33°44' W 118°17'0 0.0
2016-Feb-06 18:28N 33°44' W 118°17'0 0.0
2016-Feb-06 17:28N 33°44' W 118°17'3 0.5
2016-Feb-06 12:24N 33°44' W 118°14'3 3.0
2016-Feb-06 11:33N 33°46' W 118°14'3 3.2
2016-Feb-06 10:33N 33°44' W 118°12'2 1.9
2016-Feb-06 09:33N 33°45' W 118°13'1 1.4
2016-Feb-06 08:33N 33°46' W 118°14'3 3.2
2016-Feb-06 07:29N 33°43' W 118°11'2 1.9
2016-Feb-06 06:27N 33°45' W 118°13'0 0.0
2016-Feb-06 05:33N 33°45' W 118°13'0 0.0
2016-Feb-06 04:33N 33°45' W 118°13'1 1.3
2016-Feb-06 03:33N 33°46' W 118°13'0 0.0
2016-Feb-06 02:33N 33°46' W 118°13'3 1.1
2016-Feb-06 00:13N 33°45' W 118°16'2 2.7
2016-Feb-05 23:33N 33°46' W 118°15'3 2.1
2016-Feb-05 22:07N 33°43' W 118°15'2 1.4
2016-Feb-05 20:31N 33°44' W 118°17'0 0.0
2016-Feb-05 19:26N 33°44' W 118°17'3 0.3
2016-Feb-05 07:33N 33°44' W 118°13'2 1.7
2016-Feb-05 06:18N 33°42' W 118°15'3 3.4
2016-Feb-05 05:33N 33°44' W 118°17'0 0.0
2016-Feb-05 04:33N 33°44' W 118°17'1 0.9
2016-Feb-05 03:33N 33°44' W 118°16'1 1.4
2016-Feb-05 02:34N 33°43' W 118°15'3 2.5
2016-Feb-05 01:32N 33°45' W 118°13'1 1.4
2016-Feb-05 00:33N 33°46' W 118°13'3 3.3
2016-Feb-04 23:31N 33°44' W 118°17'0 0.0
2016-Feb-04 17:30N 33°44' W 118°17'1 0.2
2016-Feb-04 15:25N 33°44' W 118°16'3 4.1
2016-Feb-04 14:33N 33°45' W 118°12'2 1.7
2016-Feb-04 13:33N 33°46' W 118°13'3 3.1
2016-Feb-04 12:32N 33°43' W 118°12'4 4.2
2016-Feb-04 11:33N 33°45' W 118°16'1 1.3
2016-Feb-04 10:32N 33°44' W 118°16'1 0.1
2016-Feb-04 01:24N 33°44' W 118°17'1 0.9
2016-Feb-04 00:33N 33°45' W 118°16'1 0.7
2016-Feb-03 23:31N 33°44' W 118°17'5 4.8
2016-Feb-03 22:33N 33°41' W 118°21'9 7.4
2016-Feb-03 21:22N 33°49' W 118°27'6 7.0
2016-Feb-03 20:33N 33°54' W 118°27'0 0.1
2016-Feb-03 19:32N 33°54' W 118°27'3 3.1
2016-Feb-03 18:33N 33°51' W 118°27'10 6.9
2016-Feb-03 17:06N 33°42' W 118°22'7 7.4
2016-Feb-03 16:06N 33°44' W 118°14'2 4.1
2016-Feb-03 15:33N 33°46' W 118°13'0 0.3
2016-Feb-03 14:33N 33°46' W 118°13'3 3.1
2016-Feb-03 13:28N 33°44' W 118°11'5 1.2
2016-Feb-03 09:28N 33°45' W 118°16'0 0.4
2016-Feb-03 08:33N 33°45' W 118°16'3 0.3
2016-Feb-02 23:06N 33°43' W 118°14'2 3.3
2016-Feb-02 22:33N 33°45' W 118°12'1 0.6
2016-Feb-02 21:32N 33°45' W 118°13'1 1.4
2016-Feb-02 20:33N 33°46' W 118°13'0 0.1
2016-Feb-02 19:33N 33°46' W 118°13'4 1.7
2016-Feb-02 17:18N 33°43' W 118°16'3 3.9
2016-Feb-02 16:33N 33°44' W 118°12'0 0.1
2016-Feb-02 15:33N 33°44' W 118°12'3 0.3
2016-Feb-02 04:08N 33°44' W 118°16'3 5.7
2016-Feb-02 03:32N 33°45' W 118°12'1 0.5
2016-Feb-02 02:33N 33°45' W 118°13'0 0.3
2016-Feb-02 01:33N 33°45' W 118°13'0 0.2
2016-Feb-02 00:33N 33°45' W 118°13'0 0.4
2016-Feb-01 23:34N 33°45' W 118°13'1 0.5
2016-Feb-01 22:33N 33°46' W 118°13'3 1.5
2016-Feb-01 20:29N 33°44' W 118°17'0 0.0
2016-Feb-01 19:32N 33°44' W 118°17'0 0.0
2016-Feb-01 18:26N 33°44' W 118°17'0 0.0
2016-Feb-01 17:33N 33°44' W 118°17'1 1.1
2016-Feb-01 16:29N 33°46' W 118°17'3 3.0
2016-Feb-01 15:26N 33°43' W 118°15'1 1.1
2016-Feb-01 14:19N 33°44' W 118°15'1 1.7
2016-Feb-01 13:33N 33°43' W 118°15'3 2.9
2016-Feb-01 12:33N 33°45' W 118°16'2 1.8
2016-Feb-01 11:11N 33°43' W 118°16'1 1.6
2016-Feb-01 10:29N 33°44' W 118°16'1 0.2
2016-Feb-01 07:30N 33°44' W 118°17'0 0.0
2016-Feb-01 06:28N 33°44' W 118°17'0 0.0
2016-Feb-01 05:32N 33°44' W 118°17'0 0.0
2016-Feb-01 04:33N 33°44' W 118°17'3 0.5
2016-Jan-31 23:21N 33°44' W 118°13'2 2.2
2016-Jan-31 22:33N 33°45' W 118°13'0 0.0
2016-Jan-31 21:33N 33°45' W 118°13'3 2.7
2016-Jan-31 20:33N 33°44' W 118°10'0 0.4
2016-Jan-31 19:33N 33°44' W 118°10'3 2.3
2016-Jan-31 18:22N 33°44' W 118°13'3 3.3
2016-Jan-31 17:33N 33°46' W 118°13'0 0.1
2016-Jan-31 16:34N 33°46' W 118°13'0 0.1
2016-Jan-31 15:33N 33°46' W 118°13'3 0.3
2016-Jan-31 05:16N 33°43' W 118°13'0 0.4
2016-Jan-31 04:33N 33°44' W 118°13'1 0.2
2016-Jan-30 23:33N 33°45' W 118°13'2 1.6
2016-Jan-30 22:33N 33°46' W 118°14'2 0.6
2016-Jan-30 18:26N 33°44' W 118°13'2 1.9
2016-Jan-30 17:34N 33°46' W 118°13'1 0.5
2016-Jan-30 16:33N 33°45' W 118°13'0 0.3
2016-Jan-30 15:30N 33°45' W 118°13'1 1.5
2016-Jan-30 14:30N 33°44' W 118°12'4 0.5
2016-Jan-30 07:03N 33°44' W 118°17'0 0.0
2016-Jan-30 06:29N 33°44' W 118°17'0 0.0
2016-Jan-30 04:28N 33°44' W 118°17'0 0.0
2016-Jan-30 03:22N 33°44' W 118°17'0 0.0
2016-Jan-30 02:33N 33°44' W 118°17'3 3.0
2016-Jan-30 01:33N 33°44' W 118°13'2 1.9
2016-Jan-30 00:33N 33°46' W 118°13'1 1.4
2016-Jan-29 23:33N 33°45' W 118°13'1 0.8
2016-Jan-29 22:30N 33°45' W 118°14'2 2.6
2016-Jan-29 21:33N 33°44' W 118°12'2 1.7
2016-Jan-29 20:33N 33°45' W 118°13'0 0.4
2016-Jan-29 19:33N 33°45' W 118°13'1 1.3
2016-Jan-29 18:33N 33°44' W 118°13'1 1.1
2016-Jan-29 17:33N 33°43' W 118°13'3 1.5
2016-Jan-29 15:33N 33°44' W 118°17'0 0.0
2016-Jan-29 14:33N 33°44' W 118°17'1 1.2
2016-Jan-29 13:33N 33°44' W 118°15'0 0.2
2016-Jan-29 12:33N 33°44' W 118°16'1 1.1
2016-Jan-29 11:29N 33°44' W 118°17'0 0.0
2016-Jan-29 10:33N 33°44' W 118°17'3 2.5
2016-Jan-29 09:33N 33°43' W 118°14'3 3.3
2016-Jan-29 08:34N 33°46' W 118°13'3 3.1
2016-Jan-29 07:33N 33°44' W 118°11'2 1.9
2016-Jan-29 06:33N 33°45' W 118°13'0 0.0
2016-Jan-29 05:33N 33°45' W 118°13'0 0.0
2016-Jan-29 04:33N 33°45' W 118°13'1 1.2
2016-Jan-29 03:33N 33°44' W 118°13'2 1.7
2016-Jan-29 02:33N 33°43' W 118°14'2 2.2
2016-Jan-29 01:33N 33°45' W 118°13'3 3.2
2016-Jan-29 00:33N 33°44' W 118°09'2 2.5
2016-Jan-28 23:33N 33°44' W 118°12'1 1.4
2016-Jan-28 22:34N 33°45' W 118°13'1 1.2
2016-Jan-28 21:33N 33°44' W 118°12'3 2.5
2016-Jan-28 20:33N 33°46' W 118°13'0 0.1
2016-Jan-28 19:33N 33°46' W 118°13'3 2.6
2016-Jan-28 18:33N 33°44' W 118°12'1 1.5
2016-Jan-28 17:33N 33°42' W 118°12'4 4.2
2016-Jan-28 16:33N 33°44' W 118°17'  
Track history (hours):
 
Tides and Currents Weather Stations Pressure Air Temp Water Temp Dewpoint Dewpoint Depression Visibility Wind Speed Wind Dir Waves Ship Positions

Admiral

Owner: Crowley Marine Services, SEATTLE, WA. More information available from US FCC via Universal Licensing System and Coast Guard Vessel Documentation Center.

Last reported at 2016-Feb-07 16:26 UTC. Time now 2016-Feb-07 17:11 UTC.
Position N 33°44' W 118°17'.

; draft 5.3 m.

Type: Tug. MMSI: 366755020.

Date/timePositionNaut miles runAvg speedWind from/ knotsBaromVisibWave heightAir tempDewpointWater temp
2016-Feb-07 16:26N 33°44' W 118°17'3 3.6
2016-Feb-07 15:32N 33°46' W 118°13'1 1.0
2016-Feb-07 14:33N 33°46' W 118°14'2 2.0
2016-Feb-07 13:33N 33°45' W 118°12'3 3.2
2016-Feb-07 12:33N 33°45' W 118°16'1 0.2
2016-Feb-07 07:33N 33°44' W 118°17'3 0.8
2016-Feb-07 03:33N 33°45' W 118°13'1 0.7
2016-Feb-07 02:33N 33°45' W 118°13'0 0.3
2016-Feb-07 01:34N 33°45' W 118°13'1 0.7
2016-Feb-07 00:33N 33°44' W 118°13'3 0.9
2016-Feb-06 21:11N 33°44' W 118°17'0 0.0
2016-Feb-06 18:28N 33°44' W 118°17'0 0.0
2016-Feb-06 17:28N 33°44' W 118°17'3 0.5
2016-Feb-06 12:24N 33°44' W 118°14'3 3.0
2016-Feb-06 11:33N 33°46' W 118°14'3 3.2
2016-Feb-06 10:33N 33°44' W 118°12'2 1.9
2016-Feb-06 09:33N 33°45' W 118°13'1 1.4
2016-Feb-06 08:33N 33°46' W 118°14'3 3.2
2016-Feb-06 07:29N 33°43' W 118°11'2 1.9
2016-Feb-06 06:27N 33°45' W 118°13'0 0.0
2016-Feb-06 05:33N 33°45' W 118°13'0 0.0
2016-Feb-06 04:33N 33°45' W 118°13'1 1.3
2016-Feb-06 03:33N 33°46' W 118°13'0 0.0
2016-Feb-06 02:33N 33°46' W 118°13'3 1.1
2016-Feb-06 00:13N 33°45' W 118°16'2 2.7
2016-Feb-05 23:33N 33°46' W 118°15'3 2.1
2016-Feb-05 22:07N 33°43' W 118°15'2 1.4
2016-Feb-05 20:31N 33°44' W 118°17'0 0.0
2016-Feb-05 19:26N 33°44' W 118°17'3 0.3
2016-Feb-05 07:33N 33°44' W 118°13'2 1.7
2016-Feb-05 06:18N 33°42' W 118°15'3 3.4
2016-Feb-05 05:33N 33°44' W 118°17'0 0.0
2016-Feb-05 04:33N 33°44' W 118°17'1 0.9
2016-Feb-05 03:33N 33°44' W 118°16'1 1.4
2016-Feb-05 02:34N 33°43' W 118°15'3 2.5
2016-Feb-05 01:32N 33°45' W 118°13'1 1.4
2016-Feb-05 00:33N 33°46' W 118°13'3 3.3
2016-Feb-04 23:31N 33°44' W 118°17'0 0.0
2016-Feb-04 17:30N 33°44' W 118°17'1 0.2
2016-Feb-04 15:25N 33°44' W 118°16'3 4.1
2016-Feb-04 14:33N 33°45' W 118°12'2 1.7
2016-Feb-04 13:33N 33°46' W 118°13'3 3.1
2016-Feb-04 12:32N 33°43' W 118°12'4 4.2
2016-Feb-04 11:33N 33°45' W 118°16'1 1.3
2016-Feb-04 10:32N 33°44' W 118°16'1 0.1
2016-Feb-04 01:24N 33°44' W 118°17'1 0.9
2016-Feb-04 00:33N 33°45' W 118°16'1 0.7
2016-Feb-03 23:31N 33°44' W 118°17'5 4.8
2016-Feb-03 22:33N 33°41' W 118°21'9 7.4
2016-Feb-03 21:22N 33°49' W 118°27'6 7.0
2016-Feb-03 20:33N 33°54' W 118°27'0 0.1
2016-Feb-03 19:32N 33°54' W 118°27'3 3.1
2016-Feb-03 18:33N 33°51' W 118°27'10 6.9
2016-Feb-03 17:06N 33°42' W 118°22'7 7.4
2016-Feb-03 16:06N 33°44' W 118°14'2 4.1
2016-Feb-03 15:33N 33°46' W 118°13'0 0.3
2016-Feb-03 14:33N 33°46' W 118°13'3 3.1
2016-Feb-03 13:28N 33°44' W 118°11'5 1.2
2016-Feb-03 09:28N 33°45' W 118°16'0 0.4
2016-Feb-03 08:33N 33°45' W 118°16'3 0.3
2016-Feb-02 23:06N 33°43' W 118°14'2 3.3
2016-Feb-02 22:33N 33°45' W 118°12'1 0.6
2016-Feb-02 21:32N 33°45' W 118°13'1 1.4
2016-Feb-02 20:33N 33°46' W 118°13'0 0.1
2016-Feb-02 19:33N 33°46' W 118°13'4 1.7
2016-Feb-02 17:18N 33°43' W 118°16'3 3.9
2016-Feb-02 16:33N 33°44' W 118°12'0 0.1
2016-Feb-02 15:33N 33°44' W 118°12'3 0.3
2016-Feb-02 04:08N 33°44' W 118°16'3 5.7
2016-Feb-02 03:32N 33°45' W 118°12'1 0.5
2016-Feb-02 02:33N 33°45' W 118°13'0 0.3
2016-Feb-02 01:33N 33°45' W 118°13'0 0.2
2016-Feb-02 00:33N 33°45' W 118°13'0 0.4
2016-Feb-01 23:34N 33°45' W 118°13'1 0.5
2016-Feb-01 22:33N 33°46' W 118°13'3 1.5
2016-Feb-01 20:29N 33°44' W 118°17'0 0.0
2016-Feb-01 19:32N 33°44' W 118°17'0 0.0
2016-Feb-01 18:26N 33°44' W 118°17'0 0.0
2016-Feb-01 17:33N 33°44' W 118°17'1 1.1
2016-Feb-01 16:29N 33°46' W 118°17'3 3.0
2016-Feb-01 15:26N 33°43' W 118°15'1 1.1
2016-Feb-01 14:19N 33°44' W 118°15'1 1.7
2016-Feb-01 13:33N 33°43' W 118°15'3 2.9
2016-Feb-01 12:33N 33°45' W 118°16'2 1.8
2016-Feb-01 11:11N 33°43' W 118°16'1 1.6
2016-Feb-01 10:29N 33°44' W 118°16'1 0.2
2016-Feb-01 07:30N 33°44' W 118°17'0 0.0
2016-Feb-01 06:28N 33°44' W 118°17'0 0.0
2016-Feb-01 05:32N 33°44' W 118°17'0 0.0
2016-Feb-01 04:33N 33°44' W 118°17'3 0.5
2016-Jan-31 23:21N 33°44' W 118°13'2 2.2
2016-Jan-31 22:33N 33°45' W 118°13'0 0.0
2016-Jan-31 21:33N 33°45' W 118°13'3 2.7
2016-Jan-31 20:33N 33°44' W 118°10'0 0.4
2016-Jan-31 19:33N 33°44' W 118°10'3 2.3
2016-Jan-31 18:22N 33°44' W 118°13'3 3.3
2016-Jan-31 17:33N 33°46' W 118°13'0 0.1
2016-Jan-31 16:34N 33°46' W 118°13'0 0.1
2016-Jan-31 15:33N 33°46' W 118°13'3 0.3
2016-Jan-31 05:16N 33°43' W 118°13'0 0.4
2016-Jan-31 04:33N 33°44' W 118°13'1 0.2
2016-Jan-30 23:33N 33°45' W 118°13'2 1.6
2016-Jan-30 22:33N 33°46' W 118°14'2 0.6
2016-Jan-30 18:26N 33°44' W 118°13'2 1.9
2016-Jan-30 17:34N 33°46' W 118°13'1 0.5
2016-Jan-30 16:33N 33°45' W 118°13'0 0.3
2016-Jan-30 15:30N 33°45' W 118°13'1 1.5
2016-Jan-30 14:30N 33°44' W 118°12'4 0.5
2016-Jan-30 07:03N 33°44' W 118°17'0 0.0
2016-Jan-30 06:29N 33°44' W 118°17'0 0.0
2016-Jan-30 04:28N 33°44' W 118°17'0 0.0
2016-Jan-30 03:22N 33°44' W 118°17'0 0.0
2016-Jan-30 02:33N 33°44' W 118°17'3 3.0
2016-Jan-30 01:33N 33°44' W 118°13'2 1.9
2016-Jan-30 00:33N 33°46' W 118°13'1 1.4
2016-Jan-29 23:33N 33°45' W 118°13'1 0.8
2016-Jan-29 22:30N 33°45' W 118°14'2 2.6
2016-Jan-29 21:33N 33°44' W 118°12'2 1.7
2016-Jan-29 20:33N 33°45' W 118°13'0 0.4
2016-Jan-29 19:33N 33°45' W 118°13'1 1.3
2016-Jan-29 18:33N 33°44' W 118°13'1 1.1
2016-Jan-29 17:33N 33°43' W 118°13'3 1.5
2016-Jan-29 15:33N 33°44' W 118°17'0 0.0
2016-Jan-29 14:33N 33°44' W 118°17'1 1.2
2016-Jan-29 13:33N 33°44' W 118°15'0 0.2
2016-Jan-29 12:33N 33°44' W 118°16'1 1.1
2016-Jan-29 11:29N 33°44' W 118°17'0 0.0
2016-Jan-29 10:33N 33°44' W 118°17'3 2.5
2016-Jan-29 09:33N 33°43' W 118°14'3 3.3
2016-Jan-29 08:34N 33°46' W 118°13'3 3.1
2016-Jan-29 07:33N 33°44' W 118°11'2 1.9
2016-Jan-29 06:33N 33°45' W 118°13'0 0.0
2016-Jan-29 05:33N 33°45' W 118°13'0 0.0
2016-Jan-29 04:33N 33°45' W 118°13'1 1.2
2016-Jan-29 03:33N 33°44' W 118°13'2 1.7
2016-Jan-29 02:33N 33°43' W 118°14'2 2.2
2016-Jan-29 01:33N 33°45' W 118°13'3 3.2
2016-Jan-29 00:33N 33°44' W 118°09'2 2.5
2016-Jan-28 23:33N 33°44' W 118°12'1 1.4
2016-Jan-28 22:34N 33°45' W 118°13'1 1.2
2016-Jan-28 21:33N 33°44' W 118°12'3 2.5
2016-Jan-28 20:33N 33°46' W 118°13'0 0.1
2016-Jan-28 19:33N 33°46' W 118°13'3 2.6
2016-Jan-28 18:33N 33°44' W 118°12'1 1.5
2016-Jan-28 17:33N 33°42' W 118°12'4 4.2
2016-Jan-28 16:33N 33°44' W 118°17'  

Dump ship's entire track history